createdAt,value
2023-02-24T00:01:51.503Z,21.67
2023-02-24T00:04:21.541Z,22.63
2023-02-24T00:06:49.957Z,21.80
2023-02-24T00:09:20.105Z,20.70
2023-02-24T00:11:53.650Z,21.73
2023-02-24T00:14:21.641Z,21.87
2023-02-24T00:16:51.312Z,21.57
2023-02-24T00:19:22.445Z,21.07
2023-02-24T00:21:51.601Z,22.00
2023-02-24T00:24:19.801Z,21.33
2023-02-24T00:26:54.274Z,21.13
2023-02-24T00:29:22.945Z,20.50
2023-02-24T00:31:59.094Z,22.57
2023-02-24T00:34:28.230Z,20.73
2023-02-24T00:36:56.262Z,21.73
2023-02-24T00:39:32.653Z,21.40
2023-02-24T00:42:05.745Z,21.73
2023-02-24T00:44:36.108Z,21.67
2023-02-24T00:47:07.987Z,21.80
2023-02-24T00:49:42.710Z,21.10
2023-02-24T00:52:13.753Z,21.57
2023-02-24T00:54:42.039Z,20.93
2023-02-24T00:57:10.689Z,20.97
2023-02-24T00:59:39.646Z,23.50
2023-02-24T01:02:11.457Z,21.73
2023-02-24T01:04:39.770Z,21.73
2023-02-24T01:07:10.896Z,22.43
2023-02-24T01:09:40.505Z,22.53
2023-02-24T01:12:27.554Z,21.20
2023-02-24T01:14:55.597Z,22.23
2023-02-24T01:17:25.395Z,21.97
2023-02-24T01:19:55.176Z,22.20
2023-02-24T01:22:23.851Z,21.67
2023-02-24T01:24:52.187Z,21.97
2023-02-24T01:27:20.521Z,22.27
2023-02-24T01:29:49.457Z,21.83
2023-02-24T01:32:20.961Z,22.50
2023-02-24T01:34:53.235Z,21.83
2023-02-24T01:37:22.624Z,21.93
2023-02-24T01:39:51.198Z,23.67
2023-02-24T01:42:21.520Z,21.57
2023-02-24T01:45:18.519Z,22.67
2023-02-24T01:47:48.542Z,22.13
2023-02-24T01:50:21.847Z,22.73
2023-02-24T01:52:52.758Z,22.63
2023-02-24T01:55:25.646Z,21.53
2023-02-24T01:57:55.354Z,21.73
2023-02-24T02:00:38.061Z,21.57
2023-02-24T02:03:15.476Z,21.67
2023-02-24T02:05:48.716Z,22.20
2023-02-24T02:08:18.666Z,21.77
2023-02-24T02:10:48.051Z,22.23
2023-02-24T02:13:21.153Z,22.70
2023-02-24T02:15:59.496Z,21.97
2023-02-24T02:18:38.365Z,22.87
2023-02-24T02:21:55.593Z,25.07
2023-02-24T02:24:48.341Z,22.97
2023-02-24T02:27:29.547Z,23.67
2023-02-24T02:30:32.127Z,22.73
2023-02-24T02:33:33.783Z,22.33
2023-02-24T02:36:14.415Z,22.90
2023-02-24T02:38:54.455Z,21.37
2023-02-24T02:41:28.515Z,22.23
2023-02-24T02:44:07.399Z,21.90
2023-02-24T02:47:13.279Z,22.10
2023-02-24T02:49:44.361Z,24.93
2023-02-24T02:52:18.276Z,22.13
2023-02-24T02:54:50.582Z,22.97
2023-02-24T02:57:22.652Z,21.90
2023-02-24T02:59:56.222Z,21.80
2023-02-24T03:02:29.764Z,22.53
2023-02-24T03:05:00.653Z,22.50
2023-02-24T03:07:35.073Z,22.70
2023-02-24T03:10:10.876Z,21.00
2023-02-24T03:12:41.816Z,20.50
2023-02-24T03:15:13.372Z,21.87
2023-02-24T03:18:30.362Z,20.73
2023-02-24T03:21:07.540Z,21.40
2023-02-24T03:23:45.371Z,22.13
2023-02-24T03:26:21.658Z,21.30
2023-02-24T03:28:58.823Z,20.27
2023-02-24T03:31:33.536Z,20.30
2023-02-24T03:34:07.168Z,20.50
2023-02-24T03:36:35.821Z,20.57
2023-02-24T03:39:11.169Z,19.33
2023-02-24T03:41:46.353Z,19.10
2023-02-24T03:44:14.914Z,20.73
2023-02-24T03:46:43.198Z,20.90
2023-02-24T03:49:14.051Z,19.97
2023-02-24T03:51:44.783Z,22.03
2023-02-24T03:54:31.012Z,21.40
2023-02-24T03:57:09.242Z,22.83
2023-02-24T03:59:47.070Z,22.07
2023-02-24T04:02:21.641Z,20.67
2023-02-24T04:04:55.331Z,20.07
2023-02-24T04:07:38.589Z,22.60
2023-02-24T04:10:12.776Z,20.80
2023-02-24T04:12:47.150Z,21.50
2023-02-24T04:15:20.947Z,22.43
2023-02-24T04:17:53.136Z,22.63
2023-02-24T04:20:23.983Z,19.97
2023-02-24T04:22:57.230Z,21.70
2023-02-24T04:25:29.072Z,22.00
2023-02-24T04:27:59.486Z,20.37
2023-02-24T04:30:31.515Z,20.27
2023-02-24T04:32:59.600Z,22.00
2023-02-24T04:35:28.958Z,21.47
2023-02-24T04:38:25.290Z,21.87
2023-02-24T04:40:55.685Z,21.00
2023-02-24T04:43:23.806Z,21.10
2023-02-24T04:45:52.612Z,21.03
2023-02-24T04:48:20.625Z,21.97
2023-02-24T04:50:54.976Z,20.27
2023-02-24T04:53:27.128Z,20.40
2023-02-24T04:55:56.865Z,20.50
2023-02-24T04:58:28.028Z,20.90
2023-02-24T05:00:56.860Z,21.30
2023-02-24T05:03:28.059Z,21.43
2023-02-24T05:06:00.099Z,21.87
2023-02-24T05:08:30.233Z,21.57
2023-02-24T05:11:00.955Z,22.23
2023-02-24T05:13:31.773Z,22.17
2023-02-24T05:16:01.549Z,21.57
2023-02-24T05:18:35.910Z,21.70
2023-02-24T05:21:25.462Z,23.93
2023-02-24T05:23:55.531Z,23.00
2023-02-24T05:26:25.755Z,23.17
2023-02-24T05:28:56.552Z,22.43
2023-02-24T05:31:28.085Z,22.83
2023-02-24T05:33:58.602Z,23.30
2023-02-24T05:36:29.456Z,23.93
2023-02-24T05:38:59.338Z,21.47
2023-02-24T05:41:32.572Z,21.50
2023-02-24T05:44:04.873Z,22.43
2023-02-24T05:46:35.253Z,22.33
2023-02-24T05:49:08.862Z,22.03
2023-02-24T05:51:39.247Z,24.00
2023-02-24T05:54:09.887Z,24.57
2023-02-24T05:56:42.340Z,23.93
2023-02-24T05:59:11.846Z,22.03
2023-02-24T06:01:42.547Z,23.37
2023-02-24T06:04:10.989Z,23.07
2023-02-24T06:06:40.640Z,24.13
2023-02-24T06:09:12.704Z,22.37
2023-02-24T06:11:45.209Z,25.13
2023-02-24T06:14:14.463Z,24.20
2023-02-24T06:16:44.242Z,25.20
2023-02-24T06:19:13.311Z,26.03
2023-02-24T06:21:43.976Z,26.90
2023-02-24T06:24:15.467Z,24.40
2023-02-24T06:26:45.267Z,25.13
2023-02-24T06:29:15.315Z,27.17
2023-02-24T06:31:44.079Z,24.90
2023-02-24T06:34:15.219Z,25.17
2023-02-24T06:36:43.708Z,24.07
2023-02-24T06:39:14.582Z,27.10
2023-02-24T06:41:44.171Z,26.97
2023-02-24T06:44:13.819Z,26.07
2023-02-24T06:46:42.244Z,25.20
2023-02-24T06:49:10.354Z,26.07
2023-02-24T06:51:39.184Z,25.27
2023-02-24T06:54:07.264Z,26.20
2023-02-24T06:56:38.810Z,25.13
2023-02-24T06:59:11.913Z,26.07
2023-02-24T07:01:45.320Z,25.17
2023-02-24T07:04:21.089Z,24.17
2023-02-24T07:06:52.383Z,24.97
2023-02-24T07:09:24.018Z,24.33
2023-02-24T07:11:53.590Z,23.23
2023-02-24T07:14:24.721Z,24.77
2023-02-24T07:16:54.757Z,24.33
2023-02-24T07:19:26.347Z,24.37
2023-02-24T07:22:00.385Z,22.57
2023-02-24T07:24:35.916Z,22.87
2023-02-24T07:27:06.295Z,22.10
2023-02-24T07:29:37.707Z,21.97
2023-02-24T07:32:09.296Z,21.77
2023-02-24T07:34:39.894Z,21.87
2023-02-24T07:37:09.349Z,21.70
2023-02-24T07:39:39.239Z,20.63
2023-02-24T07:42:08.625Z,22.97
2023-02-24T07:44:39.084Z,22.37
2023-02-24T07:47:08.897Z,21.77
2023-02-24T07:49:39.170Z,21.87
2023-02-24T07:52:08.118Z,22.50
2023-02-24T07:54:37.318Z,20.73
2023-02-24T07:57:13.363Z,22.33
2023-02-24T07:59:47.056Z,21.77
2023-02-24T08:02:15.992Z,20.13
2023-02-24T08:04:52.584Z,21.33
2023-02-24T08:07:24.725Z,20.90
2023-02-24T08:10:24.266Z,20.93
2023-02-24T08:12:55.736Z,19.73
2023-02-24T08:15:34.548Z,20.57
2023-02-24T08:18:04.379Z,20.80
2023-02-24T08:22:42.956Z,20.60
2023-02-24T08:31:00.355Z,19.87
2023-02-24T08:33:30.139Z,18.90
2023-02-24T08:36:02.133Z,20.33
2023-02-24T08:38:39.957Z,19.97
2023-02-24T08:41:17.537Z,18.03
2023-02-24T08:43:47.108Z,19.10
2023-02-24T08:46:21.095Z,18.83
2023-02-24T08:48:50.986Z,19.30
2023-02-24T08:51:24.188Z,19.57
2023-02-24T08:53:54.748Z,18.93
2023-02-24T08:56:25.891Z,19.70
2023-02-24T08:59:05.401Z,18.63
2023-02-24T09:01:37.547Z,18.87
2023-02-24T09:04:09.033Z,20.53
2023-02-24T09:06:44.423Z,18.87
2023-02-24T09:09:21.391Z,19.23
2023-02-24T09:11:55.963Z,18.37
2023-02-24T09:14:28.573Z,19.60
2023-02-24T09:17:11.039Z,19.73
2023-02-24T09:20:03.038Z,19.10
2023-02-24T09:27:05.453Z,19.90
2023-02-24T09:30:08.972Z,18.47
2023-02-24T09:32:49.444Z,19.37
2023-02-24T09:35:27.658Z,18.73
2023-02-24T09:37:57.050Z,17.87
2023-02-24T09:43:44.532Z,15.93
2023-02-24T09:46:17.739Z,16.20
2023-02-24T09:48:55.449Z,15.37
2023-02-24T09:54:41.415Z,11.90
2023-02-24T09:57:25.616Z,11.90
2023-02-24T10:00:34.026Z,12.33
2023-02-24T11:02:04.558Z,10.87
2023-02-24T11:04:54.091Z,10.87
2023-02-24T11:07:33.962Z,10.83
2023-02-24T11:10:26.352Z,11.07
2023-02-24T11:13:19.594Z,10.80
2023-02-24T11:16:30.775Z,10.77
2023-02-24T11:19:03.776Z,11.33
2023-02-24T11:21:41.903Z,11.40
2023-02-24T11:24:19.091Z,11.93
2023-02-24T11:26:49.607Z,12.67
2023-02-24T11:29:44.314Z,12.47
2023-02-24T11:32:49.594Z,12.80
2023-02-24T11:35:29.762Z,12.37
2023-02-24T11:38:14.286Z,11.63
2023-02-24T11:40:58.688Z,12.30
2023-02-24T11:43:31.332Z,12.20
2023-02-24T11:46:15.934Z,10.63
2023-02-24T11:48:49.167Z,11.10
2023-02-24T11:51:32.507Z,11.90
2023-02-24T11:54:15.285Z,12.13
2023-02-24T11:56:47.322Z,11.47
2023-02-24T11:59:33.914Z,11.87
2023-02-24T12:02:15.332Z,12.63
2023-02-24T12:04:56.475Z,12.60
2023-02-24T12:07:36.062Z,11.73
2023-02-24T12:10:17.931Z,11.63
2023-02-24T12:13:06.620Z,11.13
2023-02-24T12:15:59.214Z,12.20
2023-02-24T12:18:43.858Z,11.50
2023-02-24T12:21:22.699Z,11.27
2023-02-24T12:23:54.951Z,10.83
2023-02-24T12:26:28.788Z,12.83
2023-02-24T12:29:18.834Z,10.53
2023-02-24T12:31:59.382Z,10.20
2023-02-24T12:34:40.954Z,10.10
2023-02-24T12:37:27.728Z,8.33
2023-02-24T12:40:13.024Z,7.93
2023-02-24T12:42:53.181Z,8.27
2023-02-24T12:45:34.181Z,7.33
2023-02-24T12:48:14.542Z,7.23
2023-02-24T12:50:50.069Z,6.80
2023-02-24T12:53:28.013Z,6.87
2023-02-24T12:56:14.398Z,7.33
2023-02-24T12:58:46.134Z,7.07
2023-02-24T13:01:23.714Z,6.63
2023-02-24T13:04:07.849Z,7.10
2023-02-24T13:06:58.209Z,6.37
2023-02-24T13:09:39.417Z,6.83
2023-02-24T13:12:16.782Z,7.83
2023-02-24T13:14:48.742Z,6.27
2023-02-24T13:17:21.964Z,7.10
2023-02-24T13:19:52.727Z,6.57
2023-02-24T13:22:31.518Z,6.63
2023-02-24T13:25:19.582Z,7.33
2023-02-24T13:27:59.664Z,8.73
2023-02-24T13:30:38.359Z,8.97
2023-02-24T13:33:24.576Z,9.30
2023-02-24T13:36:05.863Z,12.73
2023-02-24T13:38:39.204Z,10.63
2023-02-24T13:41:09.646Z,10.67
2023-02-24T13:43:39.666Z,10.30
2023-02-24T13:46:22.508Z,10.27
2023-02-24T13:49:04.654Z,10.13
2023-02-24T13:52:12.232Z,10.67
2023-02-24T13:55:00.404Z,10.23
2023-02-24T13:57:54.801Z,10.60
2023-02-24T14:00:52.805Z,10.87
2023-02-24T14:03:30.476Z,10.53
2023-02-24T14:06:04.754Z,9.67
2023-02-24T14:08:43.643Z,10.03
2023-02-24T14:11:16.759Z,10.97
2023-02-24T14:13:55.323Z,9.93
2023-02-24T14:16:36.805Z,9.17
2023-02-24T14:19:11.687Z,8.73
2023-02-24T14:22:06.273Z,8.07
2023-02-24T14:24:39.987Z,9.57
2023-02-24T14:27:08.640Z,8.60
2023-02-24T14:29:44.335Z,9.03
2023-02-24T14:32:25.238Z,10.60
2023-02-24T14:38:26.452Z,6.93
2023-02-24T14:41:32.499Z,7.27
2023-02-24T14:44:46.470Z,9.50
2023-02-24T14:47:58.400Z,8.27
2023-02-24T14:51:13.573Z,6.40
2023-02-24T14:57:28.482Z,6.60
2023-02-24T15:15:39.924Z,5.23
2023-02-24T15:54:42.758Z,4.40
2023-02-24T15:57:20.325Z,4.00
2023-02-24T15:59:58.811Z,4.70
2023-02-24T16:02:37.726Z,4.13
2023-02-24T16:05:21.497Z,4.70
2023-02-24T16:08:03.596Z,4.40
2023-02-24T16:10:39.000Z,4.47
2023-02-24T16:16:20.199Z,3.63
2023-02-24T16:18:54.936Z,3.93
2023-02-24T16:21:34.933Z,4.60
2023-02-24T16:24:14.840Z,4.37
2023-02-24T16:27:09.248Z,4.30
2023-02-24T16:30:03.524Z,4.10
2023-02-24T16:32:48.695Z,3.93
2023-02-24T16:35:47.157Z,4.00
2023-02-24T16:38:22.836Z,3.73
2023-02-24T16:41:09.483Z,3.60
2023-02-24T16:44:03.847Z,3.50
2023-02-24T16:47:32.710Z,3.70
2023-02-24T16:50:20.586Z,3.60
2023-02-24T16:53:15.281Z,3.67
2023-02-24T16:56:07.296Z,4.30
2023-02-24T16:58:42.313Z,3.43
2023-02-24T17:01:42.900Z,3.67
2023-02-24T17:04:57.482Z,3.30
2023-02-24T17:07:26.898Z,3.77
2023-02-24T17:11:32.848Z,4.00
2023-02-24T17:12:50.525Z,3.90
2023-02-24T17:15:22.895Z,3.50
2023-02-24T17:17:51.736Z,4.10
2023-02-24T17:20:21.534Z,3.03
2023-02-24T17:22:52.757Z,3.80
2023-02-24T17:25:23.256Z,3.60
2023-02-24T17:27:59.749Z,4.07
2023-02-24T17:30:41.284Z,3.50
2023-02-24T17:33:22.847Z,3.50
2023-02-24T17:42:47.812Z,3.77
2023-02-24T17:49:19.142Z,3.50
2023-02-24T17:55:19.656Z,3.47
2023-02-24T17:58:07.050Z,3.60
2023-02-24T18:04:40.213Z,5.07
2023-02-24T18:10:25.130Z,4.40
2023-02-24T18:13:18.264Z,4.87
2023-02-24T18:16:21.065Z,4.57
2023-02-24T18:19:07.299Z,3.90
2023-02-24T18:21:44.890Z,4.30
2023-02-24T18:24:28.408Z,3.77
2023-02-24T18:27:06.155Z,4.43
2023-02-24T18:29:59.705Z,4.20
2023-02-24T18:32:47.643Z,3.80
2023-02-24T18:35:22.287Z,3.83
2023-02-24T18:38:21.529Z,4.00
2023-02-24T18:41:08.409Z,3.83
2023-02-24T18:43:59.738Z,3.33
2023-02-24T18:46:47.496Z,4.03
2023-02-24T18:49:38.574Z,4.07
2023-02-24T18:55:31.323Z,4.23
2023-02-24T18:58:09.189Z,4.67
2023-02-24T19:01:05.876Z,3.87
2023-02-24T19:04:08.134Z,4.70
2023-02-24T19:06:49.203Z,4.00
2023-02-24T19:09:22.000Z,4.20
2023-02-24T19:23:59.412Z,4.17
2023-02-24T19:26:51.853Z,4.20
2023-02-24T19:29:22.460Z,4.50
2023-02-24T19:31:58.231Z,4.40
2023-02-24T19:34:42.383Z,4.60
2023-02-24T19:37:12.152Z,4.50
2023-02-24T19:39:45.552Z,4.30
2023-02-24T19:42:15.684Z,4.73
2023-02-24T19:44:45.277Z,5.20
2023-02-24T19:47:14.568Z,5.10
2023-02-24T19:49:44.294Z,5.97
2023-02-24T19:52:15.581Z,5.37
2023-02-24T19:54:58.143Z,5.50
2023-02-24T19:57:28.864Z,5.83
2023-02-24T20:00:02.219Z,5.73
2023-02-24T20:02:32.076Z,5.33
2023-02-24T20:05:02.196Z,5.93
2023-02-24T20:07:39.030Z,5.63
2023-02-24T20:10:11.369Z,6.03
2023-02-24T20:12:46.971Z,6.03
2023-02-24T20:15:23.884Z,6.40
2023-02-24T20:17:53.068Z,6.40
2023-02-24T20:20:37.860Z,6.80
2023-02-24T20:23:08.291Z,6.77
2023-02-24T20:25:41.383Z,6.30
2023-02-24T20:28:10.878Z,7.10
2023-02-24T20:30:44.755Z,7.03
2023-02-24T20:33:16.097Z,7.03
2023-02-24T20:35:45.877Z,6.87
2023-02-24T20:38:16.616Z,6.77
2023-02-24T20:41:00.237Z,7.33
2023-02-24T20:43:29.752Z,7.37
2023-02-24T20:46:01.882Z,7.30
2023-02-24T20:48:32.451Z,7.10
2023-02-24T20:51:06.837Z,7.03
2023-02-24T20:53:54.741Z,8.00
2023-02-24T20:56:43.750Z,7.70
2023-02-24T20:59:18.915Z,7.80
2023-02-24T21:01:52.511Z,7.83
2023-02-24T21:04:23.412Z,6.80
2023-02-24T21:06:54.245Z,7.20
2023-02-24T21:09:23.649Z,7.07
2023-02-24T21:11:55.731Z,7.07
2023-02-24T21:14:28.132Z,7.93
2023-02-24T21:16:59.276Z,7.73
2023-02-24T21:19:31.987Z,7.73
2023-02-24T21:22:03.981Z,8.03
2023-02-24T21:24:35.637Z,7.13
2023-02-24T21:27:19.896Z,7.13
2023-02-24T21:30:12.638Z,6.80
2023-02-24T21:32:43.154Z,6.87
2023-02-24T21:35:13.513Z,7.00
2023-02-24T21:37:43.044Z,6.90
2023-02-24T21:40:18.534Z,7.23
2023-02-24T21:42:48.156Z,7.20
2023-02-24T21:45:16.961Z,7.50
2023-02-24T21:47:46.036Z,6.13
2023-02-24T21:50:16.348Z,7.00
2023-02-24T21:52:48.045Z,7.03
2023-02-24T21:55:19.706Z,6.80
2023-02-24T21:57:49.994Z,8.50
2023-02-24T22:00:24.180Z,6.90
2023-02-24T22:02:54.847Z,6.77
2023-02-24T22:05:26.216Z,7.20
2023-02-24T22:07:54.803Z,6.70
2023-02-24T22:10:24.984Z,5.90
2023-02-24T22:12:57.576Z,6.53
2023-02-24T22:15:25.948Z,6.20
2023-02-24T22:17:55.010Z,6.10
2023-02-24T22:20:23.684Z,6.07
2023-02-24T22:22:52.532Z,5.93
2023-02-24T22:25:20.682Z,5.37
2023-02-24T22:27:48.946Z,5.60
2023-02-24T22:30:20.384Z,5.70
2023-02-24T22:32:49.219Z,5.83
2023-02-24T22:35:19.049Z,4.70
2023-02-24T22:37:47.211Z,5.20
2023-02-24T22:40:15.782Z,4.90
2023-02-24T22:42:44.598Z,4.60
2023-02-24T22:45:13.040Z,4.20
2023-02-24T22:47:42.996Z,4.97
2023-02-24T22:50:14.501Z,4.07
2023-02-24T22:52:43.232Z,4.43
2023-02-24T22:55:14.815Z,4.60
2023-02-24T22:57:43.182Z,4.60
2023-02-24T23:00:20.488Z,5.57
2023-02-24T23:02:51.112Z,4.43
2023-02-24T23:05:21.203Z,4.17
2023-02-24T23:07:50.048Z,4.23
2023-02-24T23:10:19.945Z,3.87
2023-02-24T23:12:49.897Z,4.07
2023-02-24T23:15:19.401Z,3.13
2023-02-24T23:17:51.036Z,3.20
2023-02-24T23:20:20.063Z,2.77
2023-02-24T23:22:53.485Z,3.60
2023-02-24T23:25:23.147Z,3.30
2023-02-24T23:27:52.987Z,3.50
2023-02-24T23:30:21.970Z,3.83
2023-02-24T23:32:53.296Z,3.77
2023-02-24T23:35:22.202Z,4.23
2023-02-24T23:37:50.607Z,4.70
2023-02-24T23:40:26.286Z,4.87
2023-02-24T23:42:56.140Z,4.53
2023-02-24T23:45:25.315Z,4.27
2023-02-24T23:47:55.970Z,4.53
2023-02-24T23:50:25.390Z,4.90
2023-02-24T23:52:56.271Z,4.97
2023-02-24T23:55:25.192Z,4.20
2023-02-24T23:57:53.789Z,4.93
